Time;durP1;ratioP1;P1;durP2;ratioP2;P2;SDS_P1;SDS_P2;PMS_P1;PMS_P2;Temp;Humidity;BMP_temperature;BMP_pressure;BME280_temperature;BME280_humidity;BME280_pressure;Samples;Min_cycle;Max_cycle;Signal;HPM_P1;HPM_P2
2021/09/18 00:00:38;;;;;;;1.05;0.95;;;20.60;76.40;;;;;;5092082;28;20051;-55
2021/09/18 00:03:03;;;;;;;1.33;0.90;;;20.50;76.30;;;;;;5089849;28;20054;-57
2021/09/18 00:05:29;;;;;;;1.23;0.90;;;20.50;76.30;;;;;;5091994;28;20071;-48
2021/09/18 00:07:55;;;;;;;1.13;0.88;;;20.50;76.30;;;;;;5090358;28;20044;-54
2021/09/18 00:10:20;;;;;;;1.20;0.70;;;20.50;76.30;;;;;;5092252;28;20043;-55
2021/09/18 00:12:46;;;;;;;1.30;0.68;;;20.50;76.30;;;;;;5091580;28;20056;-56
2021/09/18 00:15:12;;;;;;;1.17;0.80;;;20.50;76.30;;;;;;5091363;28;20059;-51
2021/09/18 00:17:38;;;;;;;0.93;0.70;;;20.50;76.40;;;;;;5091828;28;20036;-56
2021/09/18 00:20:05;;;;;;;1.10;1.00;;;20.50;76.40;;;;;;5090953;28;20048;-52
2021/09/18 00:22:31;;;;;;;1.48;1.05;;;20.50;76.40;;;;;;5091853;28;20043;-57
2021/09/18 00:24:57;;;;;;;1.08;0.80;;;20.50;76.40;;;;;;5091632;28;20040;-52
2021/09/18 00:27:23;;;;;;;1.52;1.00;;;20.50;76.40;;;;;;5091455;28;20085;-52
2021/09/18 00:29:48;;;;;;;1.30;0.98;;;20.50;76.40;;;;;;5091529;28;20052;-49
2021/09/18 00:32:14;;;;;;;1.10;0.90;;;20.50;76.40;;;;;;5090575;28;20127;-54
2021/09/18 00:34:39;;;;;;;1.25;0.70;;;20.50;76.40;;;;;;5091440;28;20140;-57
2021/09/18 00:37:05;;;;;;;1.25;0.77;;;20.50;76.40;;;;;;5091415;28;20033;-57
2021/09/18 00:39:31;;;;;;;0.82;0.80;;;20.50;76.40;;;;;;5091658;28;20495;-54
2021/09/18 00:41:56;;;;;;;1.25;0.77;;;20.50;76.40;;;;;;5091562;28;20043;-56
2021/09/18 00:44:26;;;;;;;1.00;0.90;;;20.50;76.40;;;;;;5091826;28;20121;-55
2021/09/18 00:46:51;;;;;;;1.05;0.77;;;20.50;76.40;;;;;;5091921;28;20040;-55
2021/09/18 00:49:17;;;;;;;0.88;0.68;;;20.50;76.40;;;;;;5095214;28;20050;-58
2021/09/18 00:51:43;;;;;;;1.02;0.75;;;20.50;76.30;;;;;;5095375;28;20043;-55
2021/09/18 00:54:11;;;;;;;0.90;0.70;;;20.50;76.40;;;;;;5094918;28;20078;-53
2021/09/18 00:56:37;;;;;;;1.27;0.73;;;20.50;76.40;;;;;;5094917;28;20124;-57
2021/09/18 00:59:03;;;;;;;1.10;1.02;;;20.50;76.40;;;;;;5095241;28;20071;-56
2021/09/18 01:01:28;;;;;;;0.75;0.75;;;20.50;76.30;;;;;;5094629;28;20036;-57
2021/09/18 01:03:54;;;;;;;0.98;0.85;;;20.50;77.10;;;;;;5094651;28;20063;-56
2021/09/18 01:06:20;;;;;;;0.90;0.80;;;20.50;76.40;;;;;;5094903;28;20043;-58
2021/09/18 01:08:55;;;;;;;1.23;0.90;;;20.50;76.40;;;;;;5094670;28;20122;-57
2021/09/18 01:11:21;;;;;;;0.95;0.70;;;20.50;76.40;;;;;;5094801;28;20056;-56
2021/09/18 01:13:46;;;;;;;1.48;0.93;;;20.50;76.40;;;;;;5094481;28;20456;-57
2021/09/18 01:16:12;;;;;;;0.73;0.60;;;20.50;76.40;;;;;;5093476;28;20131;-57
2021/09/18 01:18:37;;;;;;;0.90;0.70;;;20.50;76.40;;;;;;5093561;28;20120;-54
2021/09/18 01:21:03;;;;;;;1.10;0.80;;;20.50;76.40;;;;;;5094797;28;20102;-54
2021/09/18 01:23:29;;;;;;;0.93;0.70;;;20.50;76.40;;;;;;5094887;28;20035;-54
2021/09/18 01:25:55;;;;;;;0.80;0.75;;;20.50;76.40;;;;;;5094061;28;20043;-58
2021/09/18 01:28:22;;;;;;;1.15;1.05;;;20.50;76.40;;;;;;5094129;28;20047;-57
2021/09/18 01:30:50;;;;;;;0.85;0.60;;;20.50;76.40;;;;;;5094317;28;20043;-56
2021/09/18 01:33:15;;;;;;;1.20;0.95;;;20.50;76.50;;;;;;5094146;28;20043;-58
2021/09/18 01:35:41;;;;;;;1.13;0.82;;;20.50;76.40;;;;;;5094277;28;20468;-48
2021/09/18 01:38:07;;;;;;;1.15;0.80;;;20.50;76.40;;;;;;5094359;28;20484;-54
2021/09/18 01:40:44;;;;;;;0.70;0.70;;;20.50;76.40;;;;;;5094058;28;20471;-54
2021/09/18 01:43:11;;;;;;;1.15;0.70;;;20.50;76.50;;;;;;5093865;28;20035;-50
2021/09/18 01:45:37;;;;;;;1.05;0.70;;;20.50;76.50;;;;;;5092611;28;20048;-57
2021/09/18 01:48:06;;;;;;;1.25;0.75;;;20.50;76.40;;;;;;5093211;28;20140;-57
2021/09/18 01:50:48;;;;;;;0.85;0.70;;;20.50;76.40;;;;;;5093772;28;20055;-46
2021/09/18 01:53:19;;;;;;;0.98;0.60;;;20.50;76.40;;;;;;5093817;28;20058;-57
2021/09/18 01:55:46;;;;;;;0.85;0.65;;;20.50;76.40;;;;;;5093758;28;20544;-56
2021/09/18 01:58:13;;;;;;;0.60;0.60;;;20.50;76.50;;;;;;5093853;28;20054;-57
2021/09/18 02:00:54;;;;;;;2.15;0.70;;;20.50;76.40;;;;;;5093725;28;20036;-58
2021/09/18 02:03:21;;;;;;;1.15;0.65;;;20.50;76.50;;;;;;5090490;28;20044;-55
2021/09/18 02:05:47;;;;;;;0.95;0.63;;;20.50;76.50;;;;;;5094028;28;20044;-46
2021/09/18 02:08:13;;;;;;;1.00;0.80;;;20.50;76.50;;;;;;5093690;28;20537;-47
2021/09/18 02:10:38;;;;;;;1.02;0.68;;;20.50;76.50;;;;;;5093447;28;20047;-56
2021/09/18 02:13:07;;;;;;;0.80;0.80;;;20.50;76.40;;;;;;5093747;28;20039;-56
2021/09/18 02:15:34;;;;;;;1.35;0.90;;;20.50;76.50;;;;;;5092748;28;20132;-56
2021/09/18 02:17:59;;;;;;;1.00;0.77;;;20.40;76.40;;;;;;5094070;28;20153;-56
2021/09/18 02:20:29;;;;;;;0.77;0.60;;;20.40;76.40;;;;;;5093127;28;20479;-54
2021/09/18 02:22:55;;;;;;;1.17;0.80;;;20.40;76.40;;;;;;5093814;28;20075;-54
2021/09/18 02:25:21;;;;;;;1.13;0.77;;;20.40;76.40;;;;;;5092059;28;20044;-58
2021/09/18 02:27:47;;;;;;;0.55;0.55;;;20.50;76.40;;;;;;5093334;28;20044;-55
2021/09/18 02:30:19;;;;;;;1.42;0.70;;;20.40;76.40;;;;;;5093081;28;20048;-56
2021/09/18 02:32:45;;;;;;;1.08;0.68;;;20.50;76.50;;;;;;5093001;28;20043;-57
2021/09/18 02:35:13;;;;;;;0.85;0.70;;;20.40;76.40;;;;;;5093376;28;20491;-57
2021/09/18 02:37:39;;;;;;;1.05;0.75;;;20.50;76.40;;;;;;5093086;28;20043;-58
2021/09/18 02:40:08;;;;;;;0.75;0.70;;;20.40;76.40;;;;;;5093251;28;20038;-56
2021/09/18 02:42:37;;;;;;;0.90;0.80;;;20.40;76.40;;;;;;5093478;28;20248;-57
2021/09/18 02:45:04;;;;;;;1.90;0.80;;;20.50;76.50;;;;;;5092519;28;20046;-52
2021/09/18 02:47:30;;;;;;;0.80;0.68;;;20.40;76.40;;;;;;5091922;28;20098;-56
2021/09/18 02:49:55;;;;;;;1.10;0.70;;;20.40;76.40;;;;;;5092932;28;20500;-53
2021/09/18 02:52:21;;;;;;;0.60;0.50;;;20.40;76.30;;;;;;5092549;28;20032;-58
2021/09/18 02:54:47;;;;;;;0.95;0.70;;;20.40;76.40;;;;;;5092530;28;20093;-58
2021/09/18 02:57:13;;;;;;;1.15;0.90;;;20.40;76.40;;;;;;5092575;28;20118;-56
2021/09/18 02:59:39;;;;;;;0.55;0.50;;;20.40;76.40;;;;;;5092841;28;20036;-56
2021/09/18 03:02:05;;;;;;;0.88;0.60;;;20.50;76.40;;;;;;5091585;28;20060;-56
2021/09/18 03:04:31;;;;;;;0.90;0.60;;;20.40;76.40;;;;;;5093027;28;20050;-58
2021/09/18 03:06:57;;;;;;;0.88;0.70;;;20.40;76.40;;;;;;5092290;28;20036;-54
2021/09/18 03:09:23;;;;;;;2.22;0.80;;;20.40;76.40;;;;;;5091994;28;20071;-57
2021/09/18 03:11:49;;;;;;;0.90;0.70;;;20.40;76.40;;;;;;5092467;28;20084;-55
2021/09/18 03:14:14;;;;;;;0.73;0.70;;;20.50;76.50;;;;;;5092161;28;20047;-58
2021/09/18 03:16:40;;;;;;;0.38;0.30;;;20.40;76.40;;;;;;5092444;28;20112;-58
2021/09/18 03:19:06;;;;;;;0.88;0.68;;;20.40;76.40;;;;;;5092195;28;20044;-51
2021/09/18 03:21:31;;;;;;;1.15;0.70;;;20.40;76.40;;;;;;5091969;28;20032;-55
2021/09/18 03:23:57;;;;;;;0.73;0.70;;;20.50;76.50;;;;;;5092356;28;20036;-55
2021/09/18 03:26:23;;;;;;;1.05;0.70;;;20.50;76.50;;;;;;5091964;28;20040;-57
2021/09/18 03:28:48;;;;;;;1.48;0.70;;;20.40;76.40;;;;;;5091857;28;20048;-58
2021/09/18 03:31:17;;;;;;;0.85;0.75;;;20.40;76.40;;;;;;5092189;28;20149;-56
2021/09/18 03:33:43;;;;;;;0.63;0.57;;;20.40;76.40;;;;;;5092383;28;20036;-57
2021/09/18 03:36:09;;;;;;;1.42;0.82;;;20.40;76.40;;;;;;5092397;28;20040;-57
2021/09/18 03:38:35;;;;;;;0.70;0.60;;;20.40;76.50;;;;;;5091538;28;20047;-41
2021/09/18 03:41:00;;;;;;;0.93;0.70;;;20.40;76.40;;;;;;5090377;28;20048;-55
2021/09/18 03:43:26;;;;;;;1.27;0.75;;;20.40;76.40;;;;;;5092533;28;20089;-51
2021/09/18 03:45:52;;;;;;;1.33;0.80;;;20.40;76.40;;;;;;5092226;28;20093;-49
2021/09/18 03:48:18;;;;;;;1.02;0.65;;;20.40;76.40;;;;;;5092479;28;20044;-57
2021/09/18 03:50:43;;;;;;;0.90;0.60;;;20.40;76.40;;;;;;5092050;28;20036;-56
2021/09/18 03:53:09;;;;;;;0.80;0.80;;;20.50;76.50;;;;;;5092248;28;20043;-53
2021/09/18 03:55:35;;;;;;;0.73;0.60;;;20.40;76.40;;;;;;5091402;28;20072;-51
2021/09/18 03:58:00;;;;;;;0.52;0.50;;;20.40;76.40;;;;;;5092319;28;20051;-57
2021/09/18 04:00:26;;;;;;;0.93;0.63;;;20.40;76.40;;;;;;5092159;28;20040;-57
2021/09/18 04:02:52;;;;;;;1.00;0.70;;;20.40;76.40;;;;;;5091808;28;20501;-56
2021/09/18 04:05:18;;;;;;;1.00;0.68;;;20.40;76.40;;;;;;5092201;28;20044;-57
2021/09/18 04:07:43;;;;;;;1.83;0.85;;;20.40;76.40;;;;;;5091859;28;20040;-41
2021/09/18 04:10:10;;;;;;;0.65;0.52;;;20.40;76.40;;;;;;5091521;28;20062;-46
2021/09/18 04:12:35;;;;;;;1.33;0.80;;;20.40;76.40;;;;;;5091412;28;20492;-54
2021/09/18 04:15:01;;;;;;;0.73;0.65;;;20.40;77.10;;;;;;5092468;28;20123;-50
2021/09/18 04:17:27;;;;;;;0.52;0.47;;;20.40;76.40;;;;;;5092132;28;20075;-54
2021/09/18 04:19:52;;;;;;;0.60;0.60;;;20.40;76.40;;;;;;5090485;28;20097;-55
2021/09/18 04:22:18;;;;;;;1.00;0.60;;;20.40;76.40;;;;;;5094817;28;20043;-57
2021/09/18 04:24:44;;;;;;;0.60;0.60;;;20.40;76.40;;;;;;5096098;28;20094;-56
2021/09/18 04:27:10;;;;;;;0.50;0.50;;;20.40;76.40;;;;;;5093814;28;20056;-57
2021/09/18 04:29:35;;;;;;;0.57;0.50;;;20.40;76.40;;;;;;5095857;28;20478;-57
2021/09/18 04:32:02;;;;;;;1.27;0.50;;;20.40;76.40;;;;;;5095093;28;20047;-46
2021/09/18 04:34:27;;;;;;;1.08;0.77;;;20.40;76.40;;;;;;5095498;28;20091;-46
2021/09/18 04:36:53;;;;;;;0.52;0.45;;;20.40;76.40;;;;;;5095433;28;20522;-57
2021/09/18 04:39:19;;;;;;;0.73;0.70;;;20.40;76.40;;;;;;5095678;28;20369;-51
2021/09/18 04:41:44;;;;;;;0.50;0.50;;;20.40;76.40;;;;;;5095112;28;20042;-50
2021/09/18 04:44:11;;;;;;;0.45;0.40;;;20.40;76.40;;;;;;5095110;28;20044;-52
2021/09/18 04:46:36;;;;;;;0.95;0.80;;;20.40;76.50;;;;;;5095673;28;20040;-53
2021/09/18 04:49:02;;;;;;;1.02;0.70;;;20.40;76.50;;;;;;5093234;28;20044;-54
2021/09/18 04:51:27;;;;;;;0.60;0.60;;;20.40;76.50;;;;;;5095219;28;20052;-56
2021/09/18 04:53:53;;;;;;;0.63;0.60;;;20.30;76.40;;;;;;5094585;28;20036;-53
2021/09/18 04:56:19;;;;;;;0.50;0.43;;;20.40;76.50;;;;;;5094883;28;20048;-57
2021/09/18 04:58:45;;;;;;;1.30;0.80;;;20.40;76.40;;;;;;5094551;28;20052;-50
2021/09/18 05:01:11;;;;;;;1.02;0.70;;;20.40;76.40;;;;;;5094812;28;20083;-56
2021/09/18 05:03:36;;;;;;;0.93;0.80;;;20.40;76.50;;;;;;5094560;28;20074;-49
2021/09/18 05:06:02;;;;;;;0.50;0.43;;;20.30;76.40;;;;;;5094462;28;20435;-56
2021/09/18 05:08:27;;;;;;;0.43;0.43;;;20.30;76.40;;;;;;5094277;28;20036;-53
2021/09/18 05:10:53;;;;;;;0.57;0.57;;;20.40;76.40;;;;;;5092261;28;20136;-52
2021/09/18 05:13:19;;;;;;;1.05;0.60;;;20.40;76.40;;;;;;5093997;28;20051;-56
2021/09/18 05:15:44;;;;;;;0.63;0.63;;;20.40;76.40;;;;;;5093871;28;20070;-53
2021/09/18 05:18:10;;;;;;;0.80;0.57;;;20.40;76.50;;;;;;5094450;28;20506;-47
2021/09/18 05:20:36;;;;;;;0.55;0.47;;;20.40;76.50;;;;;;5094384;28;20032;-55
2021/09/18 05:23:01;;;;;;;0.77;0.75;;;20.40;76.50;;;;;;5094674;28;20499;-54
2021/09/18 05:25:27;;;;;;;0.73;0.60;;;20.40;76.50;;;;;;5094590;28;20040;-49
2021/09/18 05:27:52;;;;;;;0.60;0.60;;;20.40;76.50;;;;;;5094141;28;20421;-50
2021/09/18 05:30:18;;;;;;;0.70;0.70;;;20.40;76.40;;;;;;5094368;28;20055;-49
2021/09/18 05:32:44;;;;;;;0.80;0.70;;;20.40;76.50;;;;;;5093297;28;20044;-53
2021/09/18 05:35:10;;;;;;;0.63;0.60;;;20.40;76.50;;;;;;5092413;28;20036;-48
2021/09/18 05:37:35;;;;;;;0.63;0.40;;;20.30;76.40;;;;;;5094284;28;20492;-47
2021/09/18 05:40:01;;;;;;;0.65;0.50;;;20.40;76.90;;;;;;5094288;28;20043;-57
2021/09/18 05:42:28;;;;;;;0.70;0.70;;;20.40;76.50;;;;;;5093822;28;20058;-45
2021/09/18 05:44:53;;;;;;;0.60;0.60;;;20.40;76.50;;;;;;5091893;28;20070;-52
2021/09/18 05:47:19;;;;;;;0.47;0.47;;;20.40;76.50;;;;;;5093335;28;20039;-52
2021/09/18 05:49:44;;;;;;;0.70;0.52;;;20.30;76.40;;;;;;5092764;28;20032;-57
2021/09/18 05:52:10;;;;;;;0.50;0.40;;;20.30;76.40;;;;;;5093226;28;20086;-56
2021/09/18 05:54:36;;;;;;;0.80;0.60;;;20.40;76.50;;;;;;5093718;28;20483;-51
2021/09/18 05:57:02;;;;;;;0.75;0.65;;;20.30;76.40;;;;;;5093234;28;20070;-56
2021/09/18 05:59:28;;;;;;;0.68;0.68;;;20.30;76.40;;;;;;5093965;28;20090;-50
2021/09/18 06:01:53;;;;;;;0.68;0.60;;;20.40;76.40;;;;;;5084365;28;20402;-55
2021/09/18 06:04:19;;;;;;;1.17;0.70;;;20.30;76.40;;;;;;5072249;28;20043;-54
2021/09/18 06:06:45;;;;;;;0.70;0.60;;;20.30;76.40;;;;;;5093144;28;20093;-47
2021/09/18 06:09:10;;;;;;;0.52;0.40;;;20.30;76.40;;;;;;5093435;28;20055;-48
2021/09/18 06:11:36;;;;;;;0.50;0.50;;;20.30;76.40;;;;;;5093477;28;20488;-57
2021/09/18 06:14:02;;;;;;;0.95;0.70;;;20.30;76.40;;;;;;5093283;28;20051;-55
2021/09/18 06:16:27;;;;;;;1.13;0.63;;;20.30;76.40;;;;;;5093207;28;20044;-52
2021/09/18 06:18:53;;;;;;;0.95;0.60;;;20.40;76.40;;;;;;5093296;28;20395;-50
2021/09/18 06:21:19;;;;;;;0.73;0.50;;;20.30;76.40;;;;;;5093966;28;20127;-52
2021/09/18 06:23:46;;;;;;;0.60;0.57;;;20.30;76.40;;;;;;5093841;28;20392;-51
2021/09/18 06:26:11;;;;;;;0.50;0.50;;;20.30;76.40;;;;;;5093369;28;20040;-47
2021/09/18 06:28:37;;;;;;;0.90;0.60;;;20.30;76.40;;;;;;5093510;28;20114;-52
2021/09/18 06:31:03;;;;;;;0.43;0.43;;;20.30;76.40;;;;;;5093776;28;20040;-50
2021/09/18 06:33:29;;;;;;;0.38;0.38;;;20.30;76.40;;;;;;5092722;28;20036;-52
2021/09/18 06:35:55;;;;;;;0.60;0.57;;;20.30;76.40;;;;;;5093000;28;20514;-47
2021/09/18 06:38:22;;;;;;;0.57;0.45;;;20.30;76.40;;;;;;5093383;28;20040;-51
2021/09/18 06:40:52;;;;;;;0.50;0.50;;;20.30;76.40;;;;;;5093163;28;20044;-47
2021/09/18 06:43:19;;;;;;;0.60;0.60;;;20.30;76.40;;;;;;5092945;28;20458;-53
2021/09/18 06:45:45;;;;;;;0.43;0.40;;;20.30;76.30;;;;;;5092926;28;20040;-57
2021/09/18 06:48:10;;;;;;;0.50;0.50;;;20.40;76.40;;;;;;5092884;28;20066;-48
2021/09/18 06:50:37;;;;;;;0.65;0.57;;;20.30;76.40;;;;;;5092947;28;20095;-49
2021/09/18 06:53:04;;;;;;;0.60;0.60;;;20.30;76.40;;;;;;5092974;28;20050;-57
2021/09/18 06:55:30;;;;;;;0.50;0.40;;;20.30;76.40;;;;;;5092609;28;20040;-57
2021/09/18 06:57:56;;;;;;;0.30;0.30;;;20.30;76.40;;;;;;5092732;28;20036;-53
2021/09/18 07:00:22;;;;;;;0.45;0.43;;;20.30;76.40;;;;;;5092823;28;20507;-55
2021/09/18 07:02:48;;;;;;;0.77;0.50;;;20.30;76.40;;;;;;5092671;28;20056;-56
2021/09/18 07:05:14;;;;;;;0.60;0.55;;;20.30;76.40;;;;;;5091412;28;20093;-48
2021/09/18 07:07:40;;;;;;;1.15;0.60;;;20.20;76.30;;;;;;5092546;28;20058;-52
2021/09/18 07:10:07;;;;;;;0.65;0.50;;;20.30;76.40;;;;;;5092333;28;20040;-55
2021/09/18 07:12:33;;;;;;;0.43;0.43;;;20.30;76.40;;;;;;5092127;28;20051;-50
2021/09/18 07:14:59;;;;;;;0.38;0.38;;;20.30;76.40;;;;;;5092613;28;20150;-49
2021/09/18 07:17:25;;;;;;;0.47;0.47;;;20.30;76.40;;;;;;5092775;28;20555;-56
2021/09/18 07:19:51;;;;;;;0.65;0.50;;;20.30;76.40;;;;;;5092161;28;20048;-50
2021/09/18 07:22:16;;;;;;;1.15;0.50;;;20.30;76.40;;;;;;5092433;28;20040;-57
2021/09/18 07:24:42;;;;;;;0.60;0.43;;;20.30;76.40;;;;;;5091631;28;20423;-57
2021/09/18 07:27:08;;;;;;;1.17;0.60;;;20.30;76.40;;;;;;5092324;28;20044;-54
2021/09/18 07:29:33;;;;;;;1.10;0.63;;;20.30;76.40;;;;;;5092145;28;20464;-55
2021/09/18 07:31:59;;;;;;;0.60;0.60;;;20.30;76.40;;;;;;5092212;28;20139;-56
2021/09/18 07:34:25;;;;;;;1.05;0.50;;;20.30;76.40;;;;;;5092013;28;20032;-56
2021/09/18 07:36:51;;;;;;;0.65;0.50;;;20.30;76.40;;;;;;5092022;28;20318;-47
2021/09/18 07:39:18;;;;;;;0.50;0.50;;;20.30;76.40;;;;;;5092176;28;20396;-50
2021/09/18 07:41:44;;;;;;;0.60;0.50;;;20.30;76.40;;;;;;5092268;28;20111;-45
2021/09/18 07:44:10;;;;;;;0.50;0.47;;;20.30;76.40;;;;;;5092134;28;20497;-51
2021/09/18 07:46:36;;;;;;;1.00;0.50;;;20.20;76.30;;;;;;5091069;28;20036;-50
2021/09/18 07:49:02;;;;;;;0.50;0.40;;;20.30;76.40;;;;;;5091888;28;20096;-51
2021/09/18 07:51:29;;;;;;;1.45;0.47;;;20.30;76.40;;;;;;5084148;28;20151;-45
2021/09/18 07:53:57;;;;;;;0.57;0.40;;;20.30;76.40;;;;;;5090142;28;20055;-46
2021/09/18 07:56:23;;;;;;;0.52;0.40;;;20.30;76.40;;;;;;5094091;28;20121;-50
2021/09/18 07:58:49;;;;;;;0.70;0.60;;;20.30;76.40;;;;;;5095592;28;20052;-46
2021/09/18 08:01:15;;;;;;;0.50;0.40;;;20.30;76.40;;;;;;5095583;28;20071;-44
2021/09/18 08:03:40;;;;;;;0.35;0.30;;;20.30;76.40;;;;;;5096220;28;20075;-45
2021/09/18 08:06:06;;;;;;;0.70;0.57;;;20.30;76.40;;;;;;5095500;28;20043;-54
2021/09/18 08:08:32;;;;;;;0.50;0.43;;;20.30;76.40;;;;;;5095724;28;20113;-48
2021/09/18 08:10:58;;;;;;;0.50;0.50;;;20.30;76.40;;;;;;5095503;28;20065;-49
2021/09/18 08:13:24;;;;;;;0.38;0.38;;;20.30;76.40;;;;;;5095611;28;20040;-47
2021/09/18 08:15:49;;;;;;;0.50;0.50;;;20.30;76.40;;;;;;5096120;28;20036;-50
2021/09/18 08:18:15;;;;;;;0.95;0.50;;;20.30;76.40;;;;;;5094638;28;20115;-46
2021/09/18 08:20:41;;;;;;;0.50;0.40;;;20.30;76.40;;;;;;5095681;28;20112;-46
2021/09/18 08:23:09;;;;;;;0.50;0.50;;;20.30;76.40;;;;;;5095246;28;20105;-56
2021/09/18 08:25:35;;;;;;;0.50;0.45;;;20.30;76.40;;;;;;5095518;28;20040;-56
2021/09/18 08:28:01;;;;;;;0.70;0.52;;;20.30;76.40;;;;;;5095422;28;20081;-49
2021/09/18 08:30:27;;;;;;;0.60;0.30;;;20.30;76.40;;;;;;5094136;28;20051;-54
2021/09/18 08:32:52;;;;;;;0.60;0.52;;;20.30;76.40;;;;;;5095503;28;20040;-45
2021/09/18 08:35:18;;;;;;;0.50;0.50;;;20.30;76.40;;;;;;5095670;28;20396;-48
2021/09/18 08:37:44;;;;;;;0.55;0.30;;;20.20;76.30;;;;;;5095932;28;20036;-47
2021/09/18 08:40:10;;;;;;;0.88;0.50;;;20.30;76.50;;;;;;5095315;28;20086;-49
2021/09/18 08:42:40;;;;;;;0.43;0.43;;;20.30;76.40;;;;;;5095199;28;20044;-48
2021/09/18 08:45:10;;;;;;;0.40;0.40;;;20.30;76.50;;;;;;5095051;28;20476;-48
2021/09/18 08:47:37;;;;;;;0.45;0.43;;;20.30;76.40;;;;;;5095403;28;20044;-48
2021/09/18 08:50:05;;;;;;;0.70;0.50;;;20.30;76.50;;;;;;5095108;28;20044;-51
2021/09/18 08:52:30;;;;;;;0.35;0.35;;;20.30;76.50;;;;;;5095675;28;20086;-52
2021/09/18 08:54:56;;;;;;;0.40;0.40;;;20.30;76.50;;;;;;5094010;28;20051;-47
2021/09/18 08:57:22;;;;;;;0.52;0.50;;;20.30;76.50;;;;;;5095107;28;20089;-52
2021/09/18 08:59:48;;;;;;;0.40;0.40;;;20.30;76.50;;;;;;5095146;28;20044;-50
2021/09/18 09:02:23;;;;;;;0.40;0.40;;;20.30;76.50;;;;;;5089591;28;20614;-51
2021/09/18 09:05:00;;;;;;;;;;;20.30;76.50;;;;;;5089507;28;20102;-48
2021/09/18 09:07:25;;;;;;;0.63;0.63;;;20.30;77.00;;;;;;5092321;28;19928;-48
2021/09/18 09:10:02;;;;;;;0.50;0.38;;;20.30;76.60;;;;;;5093900;28;20409;-50
2021/09/18 09:12:38;;;;;;;0.40;0.40;;;20.30;76.60;;;;;;5094007;28;20143;-46
2021/09/18 09:15:22;;;;;;;0.30;0.30;;;20.30;76.60;;;;;;5091108;28;20219;-47
2021/09/18 09:17:52;;;;;;;0.50;0.35;;;20.30;76.60;;;;;;5093662;28;20429;-49
2021/09/18 09:20:25;;;;;;;0.47;0.47;;;20.30;76.60;;;;;;5094721;28;20048;-49
2021/09/18 09:22:53;;;;;;;0.50;0.50;;;20.30;76.60;;;;;;5095016;28;20044;-52
2021/09/18 09:25:26;;;;;;;0.40;0.38;;;20.30;76.60;;;;;;5093549;28;20040;-47
2021/09/18 09:27:53;;;;;;;0.57;0.57;;;20.30;76.60;;;;;;5094140;28;20072;-47
2021/09/18 09:30:28;;;;;;;0.38;0.38;;;20.30;76.60;;;;;;5094160;28;20071;-48
2021/09/18 09:32:54;;;;;;;0.40;0.30;;;20.30;76.60;;;;;;5092862;28;20054;-49
2021/09/18 09:35:20;;;;;;;0.43;0.40;;;20.30;76.60;;;;;;5094359;28;20038;-52
2021/09/18 09:37:57;;;;;;;0.50;0.50;;;20.30;76.60;;;;;;5122063;27;20468;-52
2021/09/18 09:40:33;;;;;;;0.45;0.45;;;20.30;76.60;;;;;;5093422;28;20123;-54
2021/09/18 09:42:59;;;;;;;0.47;0.40;;;20.40;76.70;;;;;;5080187;28;20036;-45
2021/09/18 09:45:25;;;;;;;0.40;0.40;;;20.30;76.60;;;;;;5085123;28;20044;-48
2021/09/18 09:48:02;;;;;;;0.47;0.47;;;20.40;76.70;;;;;;5093767;28;20076;-54
2021/09/18 09:50:28;;;;;;;0.68;0.68;;;20.40;76.70;;;;;;5091359;28;20074;-47
2021/09/18 09:52:56;;;;;;;0.50;0.50;;;20.30;76.60;;;;;;5093760;28;20402;-48
2021/09/18 09:55:22;;;;;;;0.55;0.43;;;20.30;76.70;;;;;;5093731;28;20040;-46
2021/09/18 09:58:03;;;;;;;0.28;0.28;;;20.40;76.70;;;;;;5091983;28;20036;-48
2021/09/18 10:00:46;;;;;;;0.30;0.30;;;20.40;76.80;;;;;;5093329;28;20044;-45
2021/09/18 10:03:12;;;;;;;0.50;0.50;;;20.40;76.80;;;;;;5093647;28;20050;-48
2021/09/18 10:05:38;;;;;;;0.40;0.40;;;20.40;76.80;;;;;;5094039;28;20498;-51
2021/09/18 10:08:04;;;;;;;0.55;0.50;;;20.40;76.80;;;;;;5092474;28;20040;-51
2021/09/18 10:10:33;;;;;;;0.38;0.35;;;20.40;76.80;;;;;;5093955;28;20127;-54
2021/09/18 10:12:58;;;;;;;0.52;0.50;;;20.40;76.80;;;;;;5093388;28;20094;-53
2021/09/18 10:15:26;;;;;;;0.40;0.40;;;20.40;77.50;;;;;;5091598;28;20067;-51
2021/09/18 10:17:54;;;;;;;0.50;0.40;;;20.40;76.80;;;;;;5090037;28;20048;-51
2021/09/18 10:25:33;;;;;;;0.65;0.43;;;20.40;76.80;;;;;;5091928;28;20036;-54
2021/09/18 10:28:02;;;;;;;0.40;0.40;;;20.40;76.80;;;;;;5093367;28;20499;-47
2021/09/18 10:30:31;;;;;;;0.47;0.47;;;20.40;76.80;;;;;;5093768;28;20036;-45
2021/09/18 10:32:56;;;;;;;0.43;0.40;;;20.40;76.80;;;;;;5093957;28;20055;-48
2021/09/18 10:35:22;;;;;;;0.38;0.38;;;20.40;76.80;;;;;;5093232;28;20411;-50
2021/09/18 10:37:48;;;;;;;0.40;0.30;;;20.40;76.80;;;;;;5093750;28;20055;-48
2021/09/18 10:40:15;;;;;;;0.50;0.47;;;20.40;76.80;;;;;;5091270;28;20040;-47
2021/09/18 10:42:44;;;;;;;0.30;0.30;;;20.40;76.80;;;;;;5093636;28;20044;-47
2021/09/18 10:45:11;;;;;;;0.32;0.32;;;20.40;76.80;;;;;;5092830;28;20107;-49
2021/09/18 10:47:44;;;;;;;0.50;0.50;;;20.50;76.90;;;;;;5092870;28;20048;-44
2021/09/18 10:50:23;;;;;;;0.28;0.28;;;20.40;76.80;;;;;;5092574;28;20028;-52
2021/09/18 10:53:03;;;;;;;0.30;0.30;;;20.40;76.80;;;;;;5092558;28;20059;-54
2021/09/18 10:55:30;;;;;;;0.30;0.30;;;20.40;76.90;;;;;;5093045;28;20503;-55
2021/09/18 10:57:56;;;;;;;0.57;0.50;;;20.40;76.80;;;;;;5092822;28;20063;-54
2021/09/18 11:00:24;;;;;;;0.38;0.38;;;20.40;76.80;;;;;;5092920;28;20044;-49
2021/09/18 11:02:52;;;;;;;0.82;0.45;;;20.40;76.80;;;;;;5092055;28;20111;-52
2021/09/18 11:05:29;;;;;;;0.43;0.43;;;20.40;76.80;;;;;;5092836;28;20078;-51
2021/09/18 11:08:00;;;;;;;0.40;0.40;;;20.50;76.90;;;;;;5093208;28;20132;-52
2021/09/18 11:10:28;;;;;;;0.40;0.40;;;20.50;76.90;;;;;;5092755;28;20071;-46
2021/09/18 11:13:10;;;;;;;0.43;0.20;;;20.50;76.90;;;;;;5092481;28;20353;-53
2021/09/18 11:15:41;;;;;;;0.63;0.40;;;20.50;76.90;;;;;;5072608;28;20049;-49
2021/09/18 11:18:08;;;;;;;0.40;0.38;;;20.50;76.90;;;;;;5072724;28;20118;-49
2021/09/18 11:20:35;;;;;;;0.47;0.43;;;20.50;76.90;;;;;;5093021;28;20115;-51
2021/09/18 11:23:02;;;;;;;0.80;0.45;;;20.50;76.90;;;;;;5092239;28;20055;-51
2021/09/18 11:25:37;;;;;;;0.38;0.30;;;20.50;76.90;;;;;;5092578;28;20054;-51
2021/09/18 11:28:03;;;;;;;0.50;0.40;;;20.50;76.90;;;;;;5092871;28;20048;-55
2021/09/18 11:30:42;;;;;;;1.08;0.38;;;20.50;76.90;;;;;;5091745;28;20451;-47
2021/09/18 11:33:08;;;;;;;0.30;0.30;;;20.50;76.90;;;;;;5091851;28;20044;-50
2021/09/18 11:35:35;;;;;;;0.20;0.20;;;20.50;76.90;;;;;;5092322;28;20051;-47
2021/09/18 11:38:03;;;;;;;0.50;0.40;;;20.50;76.90;;;;;;5092124;28;20590;-56
2021/09/18 11:40:28;;;;;;;0.47;0.30;;;20.50;76.90;;;;;;5092469;28;20111;-50
2021/09/18 11:42:58;;;;;;;0.30;0.30;;;20.50;76.90;;;;;;5092386;28;20135;-48
2021/09/18 11:45:26;;;;;;;0.55;0.50;;;20.50;76.90;;;;;;5091280;28;20043;-48
2021/09/18 11:47:59;;;;;;;0.30;0.30;;;20.50;76.90;;;;;;5092244;28;20040;-54
2021/09/18 11:50:38;;;;;;;0.50;0.35;;;20.50;76.90;;;;;;5091916;28;20048;-51
2021/09/18 11:53:07;;;;;;;0.65;0.40;;;20.50;76.90;;;;;;5092226;28;20042;-56
2021/09/18 11:55:35;;;;;;;0.43;0.43;;;20.50;76.90;;;;;;5091804;28;20043;-48
2021/09/18 11:58:13;;;;;;;0.40;0.40;;;20.50;76.90;;;;;;5092003;28;20044;-53
2021/09/18 12:01:00;;;;;;;0.40;0.40;;;20.50;76.90;;;;;;5091780;28;20129;-54
2021/09/18 12:03:29;;;;;;;0.40;0.40;;;20.50;77.00;;;;;;5088913;28;20484;-53
2021/09/18 12:05:56;;;;;;;0.35;0.30;;;20.50;76.90;;;;;;5091304;28;20071;-51
2021/09/18 12:08:23;;;;;;;0.38;0.30;;;20.50;76.90;;;;;;5091869;28;20499;-48
2021/09/18 12:10:57;;;;;;;0.52;0.30;;;20.60;77.00;;;;;;5091663;28;20058;-55
2021/09/18 12:13:24;;;;;;;0.30;0.30;;;20.50;76.90;;;;;;5092027;28;20464;-51
2021/09/18 12:15:52;;;;;;;0.30;0.30;;;20.50;76.90;;;;;;5092090;28;20040;-46
2021/09/18 12:18:39;;;;;;;1.27;0.38;;;20.50;76.90;;;;;;5091995;28;20040;-52
2021/09/18 12:21:21;;;;;;;0.50;0.40;;;20.50;76.90;;;;;;5091154;28;20570;-55
2021/09/18 12:24:03;;;;;;;0.30;0.30;;;20.60;77.00;;;;;;5091989;28;20444;-54
2021/09/18 12:26:33;;;;;;;0.30;0.30;;;20.60;77.00;;;;;;5090654;28;20499;-53
2021/09/18 12:29:13;;;;;;;0.40;0.40;;;20.60;77.00;;;;;;5092316;28;20036;-48
2021/09/18 12:31:42;;;;;;;1.17;0.40;;;20.60;77.00;;;;;;5088020;28;20047;-56
2021/09/18 12:34:10;;;;;;;0.57;0.50;;;20.60;77.00;;;;;;5091861;28;20119;-49
2021/09/18 12:36:36;;;;;;;0.70;0.40;;;20.60;77.00;;;;;;5091488;28;20032;-56
2021/09/18 12:39:06;;;;;;;0.30;0.30;;;20.60;77.00;;;;;;5091677;28;20048;-49
2021/09/18 12:41:33;;;;;;;0.30;0.30;;;20.60;77.00;;;;;;5092244;28;20067;-56
2021/09/18 12:44:02;;;;;;;0.35;0.30;;;20.60;77.00;;;;;;5095547;28;20040;-55
2021/09/18 12:46:30;;;;;;;0.30;0.30;;;20.60;76.90;;;;;;5095826;28;20523;-49
2021/09/18 12:49:02;;;;;;;0.55;0.47;;;20.60;77.00;;;;;;5095222;28;20479;-49
2021/09/18 12:51:29;;;;;;;0.40;0.40;;;20.60;77.00;;;;;;5095009;28;20047;-53
2021/09/18 12:53:57;;;;;;;0.70;0.60;;;20.60;77.00;;;;;;5095294;28;20412;-54